sensor_id;sensor_type;location;lat;lon;timestamp;P1;durP1;ratioP1;P2;durP2;ratioP2
68942;SDS011;60852;52.190;4.422;2023-02-23T00:03:46;54.35;;;49.65;;
68942;SDS011;60852;52.190;4.422;2023-02-23T00:06:18;55.08;;;50.01;;
68942;SDS011;60852;52.190;4.422;2023-02-23T00:08:44;54.28;;;49.71;;
68942;SDS011;60852;52.190;4.422;2023-02-23T00:11:12;51.79;;;48.18;;
68942;SDS011;60852;52.190;4.422;2023-02-23T00:13:39;53.91;;;49.35;;
68942;SDS011;60852;52.190;4.422;2023-02-23T00:16:07;54.19;;;49.77;;
68942;SDS011;60852;52.190;4.422;2023-02-23T00:18:42;54.88;;;50.19;;
68942;SDS011;60852;52.190;4.422;2023-02-23T00:21:22;53.85;;;49.89;;
68942;SDS011;60852;52.190;4.422;2023-02-23T00:23:51;52.32;;;48.42;;
68942;SDS011;60852;52.190;4.422;2023-02-23T00:26:19;53.82;;;49.08;;
68942;SDS011;60852;52.190;4.422;2023-02-23T00:28:47;53.37;;;49.00;;
68942;SDS011;60852;52.190;4.422;2023-02-23T00:31:17;54.36;;;49.95;;
68942;SDS011;60852;52.190;4.422;2023-02-23T00:33:43;51.97;;;48.38;;
68942;SDS011;60852;52.190;4.422;2023-02-23T00:36:09;52.91;;;49.06;;
68942;SDS011;60852;52.190;4.422;2023-02-23T00:38:38;53.15;;;48.99;;
68942;SDS011;60852;52.190;4.422;2023-02-23T00:41:06;53.24;;;48.87;;
68942;SDS011;60852;52.190;4.422;2023-02-23T00:43:37;52.87;;;48.77;;
68942;SDS011;60852;52.190;4.422;2023-02-23T00:46:21;52.47;;;48.43;;
68942;SDS011;60852;52.190;4.422;2023-02-23T00:48:49;52.90;;;48.87;;
68942;SDS011;60852;52.190;4.422;2023-02-23T00:51:16;50.42;;;46.71;;
68942;SDS011;60852;52.190;4.422;2023-02-23T00:53:43;52.69;;;48.92;;
68942;SDS011;60852;52.190;4.422;2023-02-23T00:56:10;53.15;;;48.83;;
68942;SDS011;60852;52.190;4.422;2023-02-23T00:58:37;52.35;;;48.45;;
68942;SDS011;60852;52.190;4.422;2023-02-23T01:01:07;50.87;;;47.20;;
68942;SDS011;60852;52.190;4.422;2023-02-23T01:03:34;53.91;;;49.33;;
68942;SDS011;60852;52.190;4.422;2023-02-23T01:06:01;51.53;;;48.26;;
68942;SDS011;60852;52.190;4.422;2023-02-23T01:08:34;52.62;;;48.68;;
68942;SDS011;60852;52.190;4.422;2023-02-23T01:11:05;53.38;;;48.60;;
68942;SDS011;60852;52.190;4.422;2023-02-23T01:13:42;52.59;;;48.45;;
68942;SDS011;60852;52.190;4.422;2023-02-23T01:16:12;52.49;;;48.47;;
68942;SDS011;60852;52.190;4.422;2023-02-23T01:18:40;52.74;;;48.27;;
68942;SDS011;60852;52.190;4.422;2023-02-23T01:21:15;51.22;;;47.36;;
68942;SDS011;60852;52.190;4.422;2023-02-23T01:23:47;51.65;;;47.48;;
68942;SDS011;60852;52.190;4.422;2023-02-23T01:26:15;50.28;;;46.65;;
68942;SDS011;60852;52.190;4.422;2023-02-23T01:28:43;50.79;;;46.95;;
68942;SDS011;60852;52.190;4.422;2023-02-23T01:31:12;51.40;;;47.55;;
68942;SDS011;60852;52.190;4.422;2023-02-23T01:33:39;53.58;;;48.80;;
68942;SDS011;60852;52.190;4.422;2023-02-23T01:36:05;50.52;;;46.97;;
68942;SDS011;60852;52.190;4.422;2023-02-23T01:38:31;53.05;;;48.55;;
68942;SDS011;60852;52.190;4.422;2023-02-23T01:40:56;51.27;;;47.60;;
68942;SDS011;60852;52.190;4.422;2023-02-23T01:43:22;51.51;;;47.47;;
68942;SDS011;60852;52.190;4.422;2023-02-23T01:45:53;51.04;;;47.23;;
68942;SDS011;60852;52.190;4.422;2023-02-23T01:48:31;52.58;;;47.83;;
68942;SDS011;60852;52.190;4.422;2023-02-23T01:51:10;53.22;;;48.71;;
68942;SDS011;60852;52.190;4.422;2023-02-23T01:53:43;51.53;;;47.13;;
68942;SDS011;60852;52.190;4.422;2023-02-23T01:56:14;51.14;;;46.81;;
68942;SDS011;60852;52.190;4.422;2023-02-23T01:58:46;52.47;;;47.73;;
68942;SDS011;60852;52.190;4.422;2023-02-23T02:01:19;54.31;;;49.06;;
68942;SDS011;60852;52.190;4.422;2023-02-23T02:03:47;51.59;;;47.44;;
68942;SDS011;60852;52.190;4.422;2023-02-23T02:06:16;50.90;;;46.48;;
68942;SDS011;60852;52.190;4.422;2023-02-23T02:08:47;52.15;;;48.00;;
68942;SDS011;60852;52.190;4.422;2023-02-23T02:11:19;51.37;;;46.89;;
68942;SDS011;60852;52.190;4.422;2023-02-23T02:13:53;52.57;;;47.82;;
68942;SDS011;60852;52.190;4.422;2023-02-23T02:16:41;49.89;;;46.15;;
68942;SDS011;60852;52.190;4.422;2023-02-23T02:19:22;51.24;;;46.83;;
68942;SDS011;60852;52.190;4.422;2023-02-23T02:24:50;50.48;;;46.43;;
68942;SDS011;60852;52.190;4.422;2023-02-23T02:33:41;53.67;;;47.82;;
68942;SDS011;60852;52.190;4.422;2023-02-23T02:39:28;52.75;;;47.53;;
68942;SDS011;60852;52.190;4.422;2023-02-23T02:50:07;53.07;;;47.39;;
68942;SDS011;60852;52.190;4.422;2023-02-23T02:52:43;49.07;;;44.90;;
68942;SDS011;60852;52.190;4.422;2023-02-23T02:55:26;53.24;;;47.47;;
68942;SDS011;60852;52.190;4.422;2023-02-23T02:57:58;52.97;;;46.92;;
68942;SDS011;60852;52.190;4.422;2023-02-23T03:00:30;52.94;;;47.33;;
68942;SDS011;60852;52.190;4.422;2023-02-23T03:06:13;50.73;;;45.52;;
68942;SDS011;60852;52.190;4.422;2023-02-23T03:12:05;49.65;;;45.25;;
68942;SDS011;60852;52.190;4.422;2023-02-23T03:15:05;49.81;;;45.03;;
68942;SDS011;60852;52.190;4.422;2023-02-23T03:18:24;49.79;;;44.91;;
68942;SDS011;60852;52.190;4.422;2023-02-23T03:21:14;50.61;;;45.48;;
68942;SDS011;60852;52.190;4.422;2023-02-23T03:27:10;49.38;;;44.57;;
68942;SDS011;60852;52.190;4.422;2023-02-23T03:33:18;50.54;;;45.13;;
68942;SDS011;60852;52.190;4.422;2023-02-23T03:36:14;48.81;;;43.94;;
68942;SDS011;60852;52.190;4.422;2023-02-23T03:39:55;48.39;;;43.27;;
68942;SDS011;60852;52.190;4.422;2023-02-23T03:42:20;46.88;;;42.82;;
68942;SDS011;60852;52.190;4.422;2023-02-23T03:45:11;46.83;;;42.47;;
68942;SDS011;60852;52.190;4.422;2023-02-23T03:48:01;46.15;;;41.85;;
68942;SDS011;60852;52.190;4.422;2023-02-23T03:50:50;48.26;;;42.88;;
68942;SDS011;60852;52.190;4.422;2023-02-23T03:53:46;48.45;;;43.31;;
68942;SDS011;60852;52.190;4.422;2023-02-23T03:56:38;47.57;;;42.83;;
68942;SDS011;60852;52.190;4.422;2023-02-23T03:59:28;49.63;;;44.09;;
68942;SDS011;60852;52.190;4.422;2023-02-23T04:02:19;49.42;;;44.29;;
68942;SDS011;60852;52.190;4.422;2023-02-23T04:05:08;48.04;;;43.52;;
68942;SDS011;60852;52.190;4.422;2023-02-23T04:07:59;47.84;;;43.01;;
68942;SDS011;60852;52.190;4.422;2023-02-23T04:10:49;47.33;;;42.81;;
68942;SDS011;60852;52.190;4.422;2023-02-23T04:13:42;47.49;;;43.06;;
68942;SDS011;60852;52.190;4.422;2023-02-23T04:16:15;49.03;;;43.74;;
68942;SDS011;60852;52.190;4.422;2023-02-23T04:18:41;48.67;;;43.47;;
68942;SDS011;60852;52.190;4.422;2023-02-23T04:21:07;46.36;;;42.15;;
68942;SDS011;60852;52.190;4.422;2023-02-23T04:23:32;47.18;;;42.58;;
68942;SDS011;60852;52.190;4.422;2023-02-23T04:26:00;47.49;;;42.58;;
68942;SDS011;60852;52.190;4.422;2023-02-23T04:28:25;47.66;;;42.92;;
68942;SDS011;60852;52.190;4.422;2023-02-23T04:30:52;48.48;;;43.14;;
68942;SDS011;60852;52.190;4.422;2023-02-23T04:33:18;46.79;;;42.07;;
68942;SDS011;60852;52.190;4.422;2023-02-23T04:35:44;51.34;;;45.14;;
68942;SDS011;60852;52.190;4.422;2023-02-23T04:38:10;48.05;;;43.14;;
68942;SDS011;60852;52.190;4.422;2023-02-23T04:40:35;47.68;;;42.71;;
68942;SDS011;60852;52.190;4.422;2023-02-23T04:43:01;48.56;;;43.76;;
68942;SDS011;60852;52.190;4.422;2023-02-23T04:45:27;45.92;;;42.14;;
68942;SDS011;60852;52.190;4.422;2023-02-23T04:47:52;46.37;;;42.01;;
68942;SDS011;60852;52.190;4.422;2023-02-23T04:50:18;49.46;;;43.55;;
68942;SDS011;60852;52.190;4.422;2023-02-23T04:52:45;49.20;;;43.83;;
68942;SDS011;60852;52.190;4.422;2023-02-23T04:55:20;45.91;;;41.48;;
68942;SDS011;60852;52.190;4.422;2023-02-23T04:57:48;45.56;;;41.15;;
68942;SDS011;60852;52.190;4.422;2023-02-23T05:00:15;45.30;;;40.99;;
68942;SDS011;60852;52.190;4.422;2023-02-23T05:02:41;45.49;;;40.72;;
68942;SDS011;60852;52.190;4.422;2023-02-23T05:05:07;45.76;;;41.13;;
68942;SDS011;60852;52.190;4.422;2023-02-23T05:07:34;44.13;;;40.12;;
68942;SDS011;60852;52.190;4.422;2023-02-23T05:10:00;45.29;;;40.81;;
68942;SDS011;60852;52.190;4.422;2023-02-23T05:12:26;44.55;;;40.13;;
68942;SDS011;60852;52.190;4.422;2023-02-23T05:14:52;44.98;;;40.82;;
68942;SDS011;60852;52.190;4.422;2023-02-23T05:17:17;44.72;;;40.47;;
68942;SDS011;60852;52.190;4.422;2023-02-23T05:19:43;46.35;;;41.08;;
68942;SDS011;60852;52.190;4.422;2023-02-23T05:22:08;46.78;;;41.45;;
68942;SDS011;60852;52.190;4.422;2023-02-23T05:24:37;45.38;;;40.88;;
68942;SDS011;60852;52.190;4.422;2023-02-23T05:27:03;46.19;;;41.01;;
68942;SDS011;60852;52.190;4.422;2023-02-23T05:29:29;45.81;;;41.29;;
68942;SDS011;60852;52.190;4.422;2023-02-23T05:31:54;47.73;;;42.30;;
68942;SDS011;60852;52.190;4.422;2023-02-23T05:34:20;46.52;;;41.83;;
68942;SDS011;60852;52.190;4.422;2023-02-23T05:36:45;43.94;;;39.88;;
68942;SDS011;60852;52.190;4.422;2023-02-23T05:39:11;45.28;;;40.85;;
68942;SDS011;60852;52.190;4.422;2023-02-23T05:41:36;46.58;;;41.76;;
68942;SDS011;60852;52.190;4.422;2023-02-23T05:44:02;44.82;;;40.50;;
68942;SDS011;60852;52.190;4.422;2023-02-23T05:46:28;44.75;;;40.93;;
68942;SDS011;60852;52.190;4.422;2023-02-23T05:48:55;45.45;;;41.41;;
68942;SDS011;60852;52.190;4.422;2023-02-23T05:51:23;46.75;;;41.89;;
68942;SDS011;60852;52.190;4.422;2023-02-23T05:53:49;47.62;;;42.51;;
68942;SDS011;60852;52.190;4.422;2023-02-23T05:56:16;46.06;;;40.63;;
68942;SDS011;60852;52.190;4.422;2023-02-23T05:58:45;48.53;;;43.07;;
68942;SDS011;60852;52.190;4.422;2023-02-23T06:01:13;48.13;;;42.65;;
68942;SDS011;60852;52.190;4.422;2023-02-23T06:03:39;47.82;;;42.62;;
68942;SDS011;60852;52.190;4.422;2023-02-23T06:06:05;48.62;;;43.64;;
68942;SDS011;60852;52.190;4.422;2023-02-23T06:08:31;47.63;;;42.81;;
68942;SDS011;60852;52.190;4.422;2023-02-23T06:10:57;49.69;;;43.86;;
68942;SDS011;60852;52.190;4.422;2023-02-23T06:13:22;48.84;;;43.24;;
68942;SDS011;60852;52.190;4.422;2023-02-23T06:15:48;50.78;;;44.39;;
68942;SDS011;60852;52.190;4.422;2023-02-23T06:18:13;50.89;;;44.24;;
68942;SDS011;60852;52.190;4.422;2023-02-23T06:20:39;49.67;;;43.80;;
68942;SDS011;60852;52.190;4.422;2023-02-23T06:23:04;50.28;;;44.07;;
68942;SDS011;60852;52.190;4.422;2023-02-23T06:25:31;50.59;;;44.33;;
68942;SDS011;60852;52.190;4.422;2023-02-23T06:27:57;49.52;;;44.28;;
68942;SDS011;60852;52.190;4.422;2023-02-23T06:30:22;49.21;;;43.67;;
68942;SDS011;60852;52.190;4.422;2023-02-23T06:32:48;48.21;;;42.33;;
68942;SDS011;60852;52.190;4.422;2023-02-23T06:35:13;46.96;;;41.09;;
68942;SDS011;60852;52.190;4.422;2023-02-23T06:37:39;49.94;;;42.93;;
68942;SDS011;60852;52.190;4.422;2023-02-23T06:40:05;47.30;;;40.78;;
68942;SDS011;60852;52.190;4.422;2023-02-23T06:42:31;47.10;;;40.28;;
68942;SDS011;60852;52.190;4.422;2023-02-23T06:44:56;43.50;;;38.19;;
68942;SDS011;60852;52.190;4.422;2023-02-23T06:47:21;41.90;;;36.86;;
68942;SDS011;60852;52.190;4.422;2023-02-23T06:49:47;41.54;;;36.91;;
68942;SDS011;60852;52.190;4.422;2023-02-23T06:52:13;42.09;;;36.44;;
68942;SDS011;60852;52.190;4.422;2023-02-23T06:54:39;40.99;;;35.91;;
68942;SDS011;60852;52.190;4.422;2023-02-23T06:57:06;37.69;;;33.56;;
68942;SDS011;60852;52.190;4.422;2023-02-23T06:59:33;37.01;;;33.21;;
68942;SDS011;60852;52.190;4.422;2023-02-23T07:02:00;37.80;;;33.22;;
68942;SDS011;60852;52.190;4.422;2023-02-23T07:04:25;36.32;;;32.00;;
68942;SDS011;60852;52.190;4.422;2023-02-23T07:06:51;32.78;;;29.58;;
68942;SDS011;60852;52.190;4.422;2023-02-23T07:09:16;31.48;;;27.91;;
68942;SDS011;60852;52.190;4.422;2023-02-23T07:11:42;30.08;;;26.63;;
68942;SDS011;60852;52.190;4.422;2023-02-23T07:14:11;29.32;;;26.06;;
68942;SDS011;60852;52.190;4.422;2023-02-23T07:16:37;28.32;;;25.23;;
68942;SDS011;60852;52.190;4.422;2023-02-23T07:19:04;27.68;;;24.53;;
68942;SDS011;60852;52.190;4.422;2023-02-23T07:21:31;25.28;;;23.03;;
68942;SDS011;60852;52.190;4.422;2023-02-23T07:23:58;24.59;;;22.34;;
68942;SDS011;60852;52.190;4.422;2023-02-23T07:26:25;23.46;;;21.56;;
68942;SDS011;60852;52.190;4.422;2023-02-23T07:28:51;21.54;;;20.02;;
68942;SDS011;60852;52.190;4.422;2023-02-23T07:31:16;21.05;;;19.71;;
68942;SDS011;60852;52.190;4.422;2023-02-23T07:33:42;21.33;;;20.15;;
68942;SDS011;60852;52.190;4.422;2023-02-23T07:36:08;20.87;;;19.60;;
68942;SDS011;60852;52.190;4.422;2023-02-23T07:38:33;21.10;;;19.54;;
68942;SDS011;60852;52.190;4.422;2023-02-23T07:41:00;20.88;;;19.35;;
68942;SDS011;60852;52.190;4.422;2023-02-23T07:43:26;20.49;;;19.14;;
68942;SDS011;60852;52.190;4.422;2023-02-23T07:45:51;20.18;;;18.62;;
68942;SDS011;60852;52.190;4.422;2023-02-23T07:48:17;19.32;;;18.19;;
68942;SDS011;60852;52.190;4.422;2023-02-23T07:50:44;18.24;;;17.37;;
68942;SDS011;60852;52.190;4.422;2023-02-23T07:53:11;17.96;;;17.01;;
68942;SDS011;60852;52.190;4.422;2023-02-23T07:55:36;16.14;;;15.33;;
68942;SDS011;60852;52.190;4.422;2023-02-23T07:58:03;16.34;;;15.75;;
68942;SDS011;60852;52.190;4.422;2023-02-23T08:00:30;15.97;;;15.36;;
68942;SDS011;60852;52.190;4.422;2023-02-23T08:02:56;15.49;;;14.88;;
68942;SDS011;60852;52.190;4.422;2023-02-23T08:05:21;14.64;;;14.15;;
68942;SDS011;60852;52.190;4.422;2023-02-23T08:07:47;14.05;;;13.73;;
68942;SDS011;60852;52.190;4.422;2023-02-23T08:10:12;13.89;;;13.54;;
68942;SDS011;60852;52.190;4.422;2023-02-23T08:12:37;14.56;;;14.24;;
68942;SDS011;60852;52.190;4.422;2023-02-23T08:15:03;14.26;;;13.87;;
68942;SDS011;60852;52.190;4.422;2023-02-23T08:17:32;14.21;;;13.77;;
68942;SDS011;60852;52.190;4.422;2023-02-23T08:20:01;14.24;;;13.87;;
68942;SDS011;60852;52.190;4.422;2023-02-23T08:22:28;14.06;;;13.69;;
68942;SDS011;60852;52.190;4.422;2023-02-23T08:24:53;14.94;;;14.44;;
68942;SDS011;60852;52.190;4.422;2023-02-23T08:27:18;14.37;;;14.01;;
68942;SDS011;60852;52.190;4.422;2023-02-23T08:29:44;15.11;;;14.68;;
68942;SDS011;60852;52.190;4.422;2023-02-23T08:32:10;15.11;;;14.51;;
68942;SDS011;60852;52.190;4.422;2023-02-23T08:34:36;14.88;;;14.45;;
68942;SDS011;60852;52.190;4.422;2023-02-23T08:37:03;14.60;;;14.23;;
68942;SDS011;60852;52.190;4.422;2023-02-23T08:39:28;14.89;;;14.60;;
68942;SDS011;60852;52.190;4.422;2023-02-23T08:41:54;14.77;;;14.30;;
68942;SDS011;60852;52.190;4.422;2023-02-23T08:44:19;13.86;;;13.40;;
68942;SDS011;60852;52.190;4.422;2023-02-23T08:46:45;13.64;;;13.33;;
68942;SDS011;60852;52.190;4.422;2023-02-23T08:49:11;13.16;;;12.85;;
68942;SDS011;60852;52.190;4.422;2023-02-23T08:51:36;12.99;;;12.69;;
68942;SDS011;60852;52.190;4.422;2023-02-23T08:54:02;12.61;;;12.15;;
68942;SDS011;60852;52.190;4.422;2023-02-23T08:56:27;12.69;;;12.34;;
68942;SDS011;60852;52.190;4.422;2023-02-23T08:58:53;12.81;;;12.52;;
68942;SDS011;60852;52.190;4.422;2023-02-23T09:01:19;12.85;;;12.49;;
68942;SDS011;60852;52.190;4.422;2023-02-23T09:03:46;13.18;;;12.74;;
68942;SDS011;60852;52.190;4.422;2023-02-23T09:06:13;13.02;;;12.64;;
68942;SDS011;60852;52.190;4.422;2023-02-23T09:08:41;13.73;;;13.38;;
68942;SDS011;60852;52.190;4.422;2023-02-23T09:11:06;16.03;;;15.43;;
68942;SDS011;60852;52.190;4.422;2023-02-23T09:13:32;14.20;;;13.93;;
68942;SDS011;60852;52.190;4.422;2023-02-23T09:15:58;14.82;;;14.47;;
68942;SDS011;60852;52.190;4.422;2023-02-23T09:18:24;14.09;;;13.62;;
68942;SDS011;60852;52.190;4.422;2023-02-23T09:20:52;13.26;;;12.94;;
68942;SDS011;60852;52.190;4.422;2023-02-23T09:23:18;13.53;;;13.02;;
68942;SDS011;60852;52.190;4.422;2023-02-23T09:25:43;13.36;;;13.00;;
68942;SDS011;60852;52.190;4.422;2023-02-23T09:28:10;12.47;;;12.14;;
68942;SDS011;60852;52.190;4.422;2023-02-23T09:30:41;12.02;;;11.54;;
68942;SDS011;60852;52.190;4.422;2023-02-23T09:33:10;11.97;;;11.61;;
68942;SDS011;60852;52.190;4.422;2023-02-23T09:35:36;10.81;;;10.73;;
68942;SDS011;60852;52.190;4.422;2023-02-23T09:38:02;11.30;;;11.01;;
68942;SDS011;60852;52.190;4.422;2023-02-23T09:40:34;11.69;;;11.30;;
68942;SDS011;60852;52.190;4.422;2023-02-23T09:43:14;11.35;;;11.02;;
68942;SDS011;60852;52.190;4.422;2023-02-23T09:48:24;11.11;;;10.95;;
68942;SDS011;60852;52.190;4.422;2023-02-23T09:50:53;12.07;;;11.82;;
68942;SDS011;60852;52.190;4.422;2023-02-23T09:53:25;11.76;;;11.53;;
68942;SDS011;60852;52.190;4.422;2023-02-23T09:55:58;12.25;;;12.03;;
68942;SDS011;60852;52.190;4.422;2023-02-23T09:58:25;12.47;;;12.20;;
68942;SDS011;60852;52.190;4.422;2023-02-23T10:01:00;12.30;;;12.12;;
68942;SDS011;60852;52.190;4.422;2023-02-23T10:03:48;12.77;;;12.49;;
68942;SDS011;60852;52.190;4.422;2023-02-23T10:06:40;13.94;;;13.69;;
68942;SDS011;60852;52.190;4.422;2023-02-23T10:12:01;15.37;;;14.82;;
68942;SDS011;60852;52.190;4.422;2023-02-23T10:14:50;14.99;;;14.53;;
68942;SDS011;60852;52.190;4.422;2023-02-23T10:22:47;15.66;;;15.00;;
68942;SDS011;60852;52.190;4.422;2023-02-23T10:25:19;16.70;;;15.79;;
68942;SDS011;60852;52.190;4.422;2023-02-23T10:27:50;16.73;;;15.93;;
68942;SDS011;60852;52.190;4.422;2023-02-23T10:35:28;15.68;;;15.23;;
68942;SDS011;60852;52.190;4.422;2023-02-23T10:37:56;16.73;;;16.08;;
68942;SDS011;60852;52.190;4.422;2023-02-23T10:40:26;18.35;;;17.43;;
68942;SDS011;60852;52.190;4.422;2023-02-23T10:42:56;19.33;;;18.23;;
68942;SDS011;60852;52.190;4.422;2023-02-23T10:45:25;18.68;;;17.62;;
68942;SDS011;60852;52.190;4.422;2023-02-23T10:48:07;18.14;;;17.26;;
68942;SDS011;60852;52.190;4.422;2023-02-23T10:50:40;18.15;;;17.35;;
68942;SDS011;60852;52.190;4.422;2023-02-23T10:53:22;17.29;;;16.58;;
68942;SDS011;60852;52.190;4.422;2023-02-23T10:56:00;18.46;;;17.57;;
68942;SDS011;60852;52.190;4.422;2023-02-23T10:58:48;19.03;;;18.29;;
68942;SDS011;60852;52.190;4.422;2023-02-23T11:01:30;20.38;;;19.45;;
68942;SDS011;60852;52.190;4.422;2023-02-23T11:04:11;21.81;;;20.70;;
68942;SDS011;60852;52.190;4.422;2023-02-23T11:06:41;22.99;;;21.62;;
68942;SDS011;60852;52.190;4.422;2023-02-23T11:09:23;26.78;;;24.61;;
68942;SDS011;60852;52.190;4.422;2023-02-23T11:11:58;27.13;;;24.81;;
68942;SDS011;60852;52.190;4.422;2023-02-23T11:14:27;30.43;;;28.05;;
68942;SDS011;60852;52.190;4.422;2023-02-23T11:16:55;30.62;;;28.52;;
68942;SDS011;60852;52.190;4.422;2023-02-23T11:19:23;32.41;;;29.60;;
68942;SDS011;60852;52.190;4.422;2023-02-23T11:21:51;33.81;;;30.83;;
68942;SDS011;60852;52.190;4.422;2023-02-23T11:24:18;37.79;;;34.36;;
68942;SDS011;60852;52.190;4.422;2023-02-23T11:26:49;41.87;;;37.29;;
68942;SDS011;60852;52.190;4.422;2023-02-23T11:29:38;40.65;;;36.78;;
68942;SDS011;60852;52.190;4.422;2023-02-23T11:32:08;43.03;;;38.60;;
68942;SDS011;60852;52.190;4.422;2023-02-23T11:34:40;44.15;;;40.09;;
68942;SDS011;60852;52.190;4.422;2023-02-23T11:39:53;45.24;;;41.10;;
68942;SDS011;60852;52.190;4.422;2023-02-23T11:42:22;44.42;;;40.49;;
68942;SDS011;60852;52.190;4.422;2023-02-23T11:45:04;46.08;;;41.67;;
68942;SDS011;60852;52.190;4.422;2023-02-23T11:47:39;47.23;;;42.89;;
68942;SDS011;60852;52.190;4.422;2023-02-23T11:50:19;48.24;;;43.30;;
68942;SDS011;60852;52.190;4.422;2023-02-23T11:53:12;46.48;;;42.41;;
68942;SDS011;60852;52.190;4.422;2023-02-23T11:55:38;46.66;;;42.73;;
68942;SDS011;60852;52.190;4.422;2023-02-23T12:00:55;47.24;;;42.90;;
68942;SDS011;60852;52.190;4.422;2023-02-23T12:03:21;48.71;;;43.57;;
68942;SDS011;60852;52.190;4.422;2023-02-23T12:05:50;47.69;;;42.59;;
68942;SDS011;60852;52.190;4.422;2023-02-23T12:10:56;44.54;;;40.35;;
68942;SDS011;60852;52.190;4.422;2023-02-23T12:13:30;42.75;;;38.89;;
68942;SDS011;60852;52.190;4.422;2023-02-23T12:18:54;41.92;;;37.97;;
68942;SDS011;60852;52.190;4.422;2023-02-23T12:24:31;37.00;;;34.03;;
68942;SDS011;60852;52.190;4.422;2023-02-23T12:27:15;37.10;;;33.62;;
68942;SDS011;60852;52.190;4.422;2023-02-23T12:30:04;32.52;;;29.41;;
68942;SDS011;60852;52.190;4.422;2023-02-23T12:32:48;30.27;;;27.75;;
68942;SDS011;60852;52.190;4.422;2023-02-23T12:36:14;32.19;;;29.19;;
68942;SDS011;60852;52.190;4.422;2023-02-23T12:38:33;27.34;;;24.93;;
68942;SDS011;60852;52.190;4.422;2023-02-23T12:41:12;24.70;;;22.71;;
68942;SDS011;60852;52.190;4.422;2023-02-23T12:43:54;24.95;;;22.62;;
68942;SDS011;60852;52.190;4.422;2023-02-23T12:46:45;25.22;;;22.57;;
68942;SDS011;60852;52.190;4.422;2023-02-23T12:51:51;26.71;;;23.63;;
68942;SDS011;60852;52.190;4.422;2023-02-23T12:54:35;24.86;;;21.74;;
68942;SDS011;60852;52.190;4.422;2023-02-23T13:05:53;28.56;;;24.12;;
68942;SDS011;60852;52.190;4.422;2023-02-23T13:11:40;27.55;;;23.48;;
68942;SDS011;60852;52.190;4.422;2023-02-23T13:19:50;24.91;;;21.93;;
68942;SDS011;60852;52.190;4.422;2023-02-23T13:22:44;19.00;;;17.02;;
68942;SDS011;60852;52.190;4.422;2023-02-23T13:25:19;19.40;;;17.54;;
68942;SDS011;60852;52.190;4.422;2023-02-23T13:27:54;21.70;;;19.73;;
68942;SDS011;60852;52.190;4.422;2023-02-23T13:30:24;21.12;;;19.88;;
68942;SDS011;60852;52.190;4.422;2023-02-23T13:32:50;15.54;;;14.47;;
68942;SDS011;60852;52.190;4.422;2023-02-23T13:35:17;14.92;;;13.81;;
68942;SDS011;60852;52.190;4.422;2023-02-23T13:37:49;15.72;;;14.27;;
68942;SDS011;60852;52.190;4.422;2023-02-23T13:43:14;15.25;;;13.99;;
68942;SDS011;60852;52.190;4.422;2023-02-23T13:48:41;8.93;;;8.36;;
68942;SDS011;60852;52.190;4.422;2023-02-23T13:56:32;5.16;;;4.59;;
68942;SDS011;60852;52.190;4.422;2023-02-23T13:59:30;5.09;;;4.39;;
68942;SDS011;60852;52.190;4.422;2023-02-23T14:02:18;5.79;;;4.73;;
68942;SDS011;60852;52.190;4.422;2023-02-23T14:04:47;6.09;;;4.85;;
68942;SDS011;60852;52.190;4.422;2023-02-23T14:07:20;6.74;;;5.23;;
68942;SDS011;60852;52.190;4.422;2023-02-23T14:09:53;7.29;;;5.62;;
68942;SDS011;60852;52.190;4.422;2023-02-23T14:12:31;6.95;;;5.14;;
68942;SDS011;60852;52.190;4.422;2023-02-23T14:18:01;7.81;;;5.60;;
68942;SDS011;60852;52.190;4.422;2023-02-23T14:23:14;8.16;;;5.74;;
68942;SDS011;60852;52.190;4.422;2023-02-23T14:38:50;7.70;;;6.29;;
68942;SDS011;60852;52.190;4.422;2023-02-23T14:41:29;11.65;;;8.50;;
68942;SDS011;60852;52.190;4.422;2023-02-23T14:47:14;10.46;;;7.18;;
68942;SDS011;60852;52.190;4.422;2023-02-23T14:49:55;11.48;;;7.73;;
68942;SDS011;60852;52.190;4.422;2023-02-23T14:52:27;12.88;;;8.42;;
68942;SDS011;60852;52.190;4.422;2023-02-23T14:57:37;13.39;;;8.74;;
68942;SDS011;60852;52.190;4.422;2023-02-23T15:00:14;13.78;;;8.92;;
68942;SDS011;60852;52.190;4.422;2023-02-23T15:05:26;11.38;;;7.36;;
68942;SDS011;60852;52.190;4.422;2023-02-23T15:07:58;13.04;;;8.54;;
68942;SDS011;60852;52.190;4.422;2023-02-23T15:10:28;19.21;;;12.11;;
68942;SDS011;60852;52.190;4.422;2023-02-23T15:13:08;21.32;;;13.14;;
68942;SDS011;60852;52.190;4.422;2023-02-23T15:15:39;20.61;;;12.77;;
68942;SDS011;60852;52.190;4.422;2023-02-23T15:18:09;20.48;;;12.77;;
68942;SDS011;60852;52.190;4.422;2023-02-23T15:20:48;19.28;;;12.04;;
68942;SDS011;60852;52.190;4.422;2023-02-23T15:23:15;20.10;;;12.37;;
68942;SDS011;60852;52.190;4.422;2023-02-23T15:25:43;18.88;;;12.01;;
68942;SDS011;60852;52.190;4.422;2023-02-23T15:28:27;19.18;;;11.94;;
68942;SDS011;60852;52.190;4.422;2023-02-23T15:31:00;23.42;;;14.18;;
68942;SDS011;60852;52.190;4.422;2023-02-23T15:33:28;24.69;;;15.11;;
68942;SDS011;60852;52.190;4.422;2023-02-23T15:38:31;26.11;;;15.91;;
68942;SDS011;60852;52.190;4.422;2023-02-23T15:41:05;26.03;;;15.79;;
68942;SDS011;60852;52.190;4.422;2023-02-23T15:43:39;25.06;;;15.28;;
68942;SDS011;60852;52.190;4.422;2023-02-23T15:46:07;26.21;;;15.99;;
68942;SDS011;60852;52.190;4.422;2023-02-23T15:48:48;26.37;;;15.95;;
68942;SDS011;60852;52.190;4.422;2023-02-23T15:51:20;26.72;;;16.14;;
68942;SDS011;60852;52.190;4.422;2023-02-23T15:53:52;27.51;;;16.83;;
68942;SDS011;60852;52.190;4.422;2023-02-23T15:56:21;24.96;;;15.66;;
68942;SDS011;60852;52.190;4.422;2023-02-23T15:58:52;25.90;;;16.29;;
68942;SDS011;60852;52.190;4.422;2023-02-23T16:01:28;25.00;;;15.97;;
68942;SDS011;60852;52.190;4.422;2023-02-23T16:04:05;22.85;;;14.46;;
68942;SDS011;60852;52.190;4.422;2023-02-23T16:06:34;23.57;;;15.04;;
68942;SDS011;60852;52.190;4.422;2023-02-23T16:11:33;22.01;;;14.63;;
68942;SDS011;60852;52.190;4.422;2023-02-23T16:14:01;23.63;;;15.99;;
68942;SDS011;60852;52.190;4.422;2023-02-23T16:16:28;23.34;;;15.69;;
68942;SDS011;60852;52.190;4.422;2023-02-23T16:18:58;23.65;;;15.62;;
68942;SDS011;60852;52.190;4.422;2023-02-23T16:21:26;23.19;;;15.92;;
68942;SDS011;60852;52.190;4.422;2023-02-23T16:23:58;24.08;;;16.57;;
68942;SDS011;60852;52.190;4.422;2023-02-23T16:26:33;25.85;;;17.56;;
68942;SDS011;60852;52.190;4.422;2023-02-23T16:29:25;25.03;;;16.04;;
68942;SDS011;60852;52.190;4.422;2023-02-23T16:31:57;23.36;;;14.70;;
68942;SDS011;60852;52.190;4.422;2023-02-23T16:36:54;21.74;;;13.58;;
68942;SDS011;60852;52.190;4.422;2023-02-23T16:39:21;21.66;;;13.29;;
68942;SDS011;60852;52.190;4.422;2023-02-23T16:41:53;22.68;;;13.78;;
68942;SDS011;60852;52.190;4.422;2023-02-23T16:44:20;19.12;;;11.89;;
68942;SDS011;60852;52.190;4.422;2023-02-23T16:49:29;19.19;;;12.37;;
68942;SDS011;60852;52.190;4.422;2023-02-23T16:51:55;18.18;;;11.62;;
68942;SDS011;60852;52.190;4.422;2023-02-23T16:54:23;17.50;;;11.15;;
68942;SDS011;60852;52.190;4.422;2023-02-23T16:56:49;17.66;;;11.19;;
68942;SDS011;60852;52.190;4.422;2023-02-23T16:59:19;18.28;;;11.75;;
68942;SDS011;60852;52.190;4.422;2023-02-23T17:01:47;18.52;;;11.83;;
68942;SDS011;60852;52.190;4.422;2023-02-23T17:04:14;17.66;;;11.37;;